createdAt,value
2022-11-30T00:00:31.769Z,100254.59
2022-11-30T00:03:01.691Z,100255.47
2022-11-30T00:05:30.606Z,100250.16
2022-11-30T00:08:02.316Z,100250.38
2022-11-30T00:10:31.872Z,100249.22
2022-11-30T00:13:01.355Z,100250.84
2022-11-30T00:15:29.991Z,100244.84
2022-11-30T00:18:00.206Z,100244.47
2022-11-30T00:20:30.274Z,100244.47
2022-11-30T00:22:59.812Z,100239.53
2022-11-30T00:25:29.362Z,100241.03
2022-11-30T00:28:01.986Z,100232.44
2022-11-30T00:30:31.490Z,100234.41
2022-11-30T00:33:01.046Z,100231.50
2022-11-30T00:35:32.125Z,100235.09
2022-11-30T00:38:03.493Z,100246.22
2022-11-30T00:40:32.942Z,100233.31
2022-11-30T00:43:02.541Z,100241.25
2022-11-30T00:45:31.159Z,100243.53
2022-11-30T00:48:00.584Z,100250.38
2022-11-30T00:50:30.077Z,100251.63
2022-11-30T00:52:59.636Z,100251.63
2022-11-30T00:55:30.536Z,100241.91
2022-11-30T00:58:00.072Z,100247.03
2022-11-30T01:00:29.987Z,100241.91
2022-11-30T01:03:03.045Z,100238.47
2022-11-30T01:05:35.304Z,100230.28
2022-11-30T01:08:07.927Z,100229.28
2022-11-30T01:10:41.941Z,100244.31
2022-11-30T01:13:13.329Z,100240.31
2022-11-30T01:15:44.804Z,100241.00
2022-11-30T01:18:14.263Z,100239.53
2022-11-30T01:20:44.033Z,100241.78
2022-11-30T01:23:12.859Z,100243.78
2022-11-30T01:25:42.341Z,100239.31
2022-11-30T01:28:11.879Z,100237.38
2022-11-30T01:30:42.137Z,100244.38
2022-11-30T01:33:11.686Z,100246.09
2022-11-30T01:35:41.133Z,100248.75
2022-11-30T01:38:08.871Z,100242.09
2022-11-30T01:40:37.534Z,100256.00
2022-11-30T01:43:12.411Z,100252.41
2022-11-30T01:45:41.204Z,100238.22
2022-11-30T01:48:10.208Z,100242.38
2022-11-30T01:50:39.110Z,100241.72
2022-11-30T01:53:12.669Z,100233.00
2022-11-30T01:55:49.451Z,100230.34
2022-11-30T01:58:30.764Z,100232.78
2022-11-30T02:01:00.753Z,100245.00
2022-11-30T02:03:53.452Z,100235.31
2022-11-30T02:06:26.482Z,100233.00
2022-11-30T02:08:56.102Z,100237.06
2022-11-30T02:11:28.089Z,100233.59
2022-11-30T02:14:37.896Z,100231.13
2022-11-30T02:17:55.257Z,100239.56
2022-11-30T02:21:26.595Z,100243.00
2022-11-30T02:24:41.535Z,100249.00
2022-11-30T02:28:02.740Z,100250.72
2022-11-30T02:30:37.096Z,100238.44
2022-11-30T02:33:21.499Z,100240.06
2022-11-30T02:35:55.233Z,100230.41
2022-11-30T02:38:27.365Z,100237.50
2022-11-30T02:40:56.033Z,100228.19
2022-11-30T02:43:29.154Z,100222.88
2022-11-30T02:46:30.067Z,100217.63
2022-11-30T02:49:50.715Z,100210.84
2022-11-30T02:52:23.075Z,100217.09
2022-11-30T02:54:54.467Z,100213.59
2022-11-30T02:57:23.202Z,100210.78
2022-11-30T02:59:52.145Z,100204.59
2022-11-30T03:02:21.649Z,100198.97
2022-11-30T03:04:51.373Z,100204.44
2022-11-30T03:07:20.891Z,100205.13
2022-11-30T03:09:49.613Z,100207.66
2022-11-30T03:12:18.318Z,100224.66
2022-11-30T03:14:47.145Z,100223.72
2022-11-30T03:17:15.533Z,100219.25
2022-11-30T03:19:44.474Z,100213.19
2022-11-30T03:22:13.150Z,100220.75
2022-11-30T03:24:41.803Z,100219.00
2022-11-30T03:27:11.018Z,100210.69
2022-11-30T03:29:39.748Z,100231.13
2022-11-30T03:32:08.523Z,100232.00
2022-11-30T03:34:37.976Z,100233.72
2022-11-30T03:37:06.662Z,100241.44
2022-11-30T03:39:36.083Z,100240.66
2022-11-30T03:42:03.947Z,100246.19
2022-11-30T03:44:32.631Z,100238.75
2022-11-30T03:47:01.386Z,100236.41
2022-11-30T03:49:30.035Z,100235.19
2022-11-30T03:51:59.521Z,100238.22
2022-11-30T03:54:28.267Z,100233.00
2022-11-30T03:56:57.689Z,100247.03
2022-11-30T03:59:27.192Z,100248.59
2022-11-30T04:01:55.883Z,100243.69
2022-11-30T04:04:24.627Z,100236.53
2022-11-30T04:06:52.388Z,100240.19
2022-11-30T04:09:21.137Z,100238.38
2022-11-30T04:11:49.842Z,100245.09
2022-11-30T04:14:18.628Z,100244.47
2022-11-30T04:16:48.084Z,100242.44
2022-11-30T04:19:17.523Z,100240.81
2022-11-30T04:21:46.188Z,100243.38
2022-11-30T04:24:14.854Z,100237.44
2022-11-30T04:26:43.758Z,100226.69
2022-11-30T04:29:12.588Z,100242.34
2022-11-30T04:31:42.181Z,100236.50
2022-11-30T04:34:11.648Z,100230.25
2022-11-30T04:36:41.214Z,100229.50
2022-11-30T04:39:09.924Z,100220.69
2022-11-30T04:41:39.956Z,100230.03
2022-11-30T04:44:08.700Z,100230.34
2022-11-30T04:46:37.942Z,100231.44
2022-11-30T04:49:05.768Z,100233.69
2022-11-30T04:51:35.181Z,100234.47
2022-11-30T04:54:04.867Z,100233.56
2022-11-30T04:56:33.511Z,100230.97
2022-11-30T04:59:03.326Z,100236.44
2022-11-30T05:01:32.192Z,100231.59
2022-11-30T05:04:01.851Z,100227.47
2022-11-30T05:06:31.343Z,100227.22
2022-11-30T05:09:00.292Z,100232.06
2022-11-30T05:11:29.048Z,100227.28
2022-11-30T05:13:57.732Z,100232.72
2022-11-30T05:16:27.269Z,100231.00
2022-11-30T05:18:56.000Z,100231.19
2022-11-30T05:21:25.486Z,100235.41
2022-11-30T05:23:54.472Z,100225.16
2022-11-30T05:26:22.324Z,100228.47
2022-11-30T05:28:51.755Z,100232.00
2022-11-30T05:31:21.363Z,100227.00
2022-11-30T05:33:54.513Z,100235.72
2022-11-30T05:36:23.967Z,100243.28
2022-11-30T05:38:53.722Z,100247.66
2022-11-30T05:41:23.339Z,100251.06
2022-11-30T05:43:52.075Z,100251.88
2022-11-30T05:46:21.549Z,100260.66
2022-11-30T05:48:51.343Z,100255.25
2022-11-30T05:51:22.124Z,100253.59
2022-11-30T05:53:50.761Z,100259.88
2022-11-30T05:56:21.942Z,100259.66
2022-11-30T05:58:51.424Z,100258.97
2022-11-30T06:01:23.335Z,100259.81
2022-11-30T06:03:53.463Z,100262.41
2022-11-30T06:06:23.795Z,100254.88
2022-11-30T06:08:53.248Z,100261.47
2022-11-30T06:11:21.914Z,100266.97
2022-11-30T06:13:51.512Z,100267.03
2022-11-30T06:16:21.014Z,100276.03
2022-11-30T06:18:49.748Z,100270.66
2022-11-30T06:21:24.106Z,100271.75
2022-11-30T06:23:54.181Z,100272.88
2022-11-30T06:26:22.998Z,100273.53
2022-11-30T06:28:51.683Z,100275.13
2022-11-30T06:31:21.266Z,100276.22
2022-11-30T06:33:51.562Z,100270.09
2022-11-30T06:36:23.377Z,100275.38
2022-11-30T06:38:52.782Z,100272.69
2022-11-30T06:41:22.983Z,100272.78
2022-11-30T06:43:52.906Z,100279.78
2022-11-30T06:46:22.398Z,100278.06
2022-11-30T06:48:51.955Z,100284.78
2022-11-30T06:51:21.417Z,100287.56
2022-11-30T06:53:50.876Z,100287.53
2022-11-30T06:56:20.387Z,100287.50
2022-11-30T06:58:50.254Z,100294.28
2022-11-30T07:01:19.829Z,100282.81
2022-11-30T07:03:50.052Z,100292.38
2022-11-30T07:06:19.640Z,100289.22
2022-11-30T07:08:50.372Z,100287.09
2022-11-30T07:11:19.934Z,100281.63
2022-11-30T07:13:49.467Z,100282.88
2022-11-30T07:16:18.189Z,100284.84
2022-11-30T07:18:46.866Z,100284.28
2022-11-30T07:21:15.522Z,100286.97
2022-11-30T07:24:03.655Z,100284.06
2022-11-30T07:26:32.369Z,100277.16
2022-11-30T07:29:01.081Z,100280.47
2022-11-30T07:31:34.888Z,100285.81
2022-11-30T07:34:09.926Z,100281.19
2022-11-30T07:36:38.591Z,100287.41
2022-11-30T07:39:07.358Z,100288.84
2022-11-30T07:41:36.863Z,100281.72
2022-11-30T07:44:07.203Z,100287.75
2022-11-30T07:46:38.871Z,100290.28
2022-11-30T07:49:10.115Z,100293.09
2022-11-30T07:51:39.651Z,100290.44
2022-11-30T07:54:09.256Z,100286.63
2022-11-30T07:56:38.775Z,100294.28
2022-11-30T07:59:07.437Z,100289.34
2022-11-30T08:01:37.598Z,100304.28
2022-11-30T08:04:06.505Z,100290.47
2022-11-30T08:06:35.979Z,100294.22
2022-11-30T08:09:05.749Z,100294.34
2022-11-30T08:11:37.174Z,100291.31
2022-11-30T08:14:06.217Z,100295.38
2022-11-30T08:16:38.616Z,100292.31
2022-11-30T08:19:08.090Z,100286.22
2022-11-30T08:21:38.310Z,100286.81
2022-11-30T08:24:09.711Z,100289.09
2022-11-30T08:26:38.331Z,100290.59
2022-11-30T08:29:06.891Z,100292.03
2022-11-30T08:31:38.316Z,100285.59
2022-11-30T08:34:13.098Z,100295.50
2022-11-30T08:36:42.900Z,100288.41
2022-11-30T08:39:14.153Z,100282.53
2022-11-30T08:41:42.864Z,100278.09
2022-11-30T08:44:11.440Z,100280.97
2022-11-30T08:46:51.603Z,100275.59
2022-11-30T08:49:27.812Z,100284.78
2022-11-30T08:57:35.095Z,100282.44
2022-11-30T09:00:04.144Z,100286.25
2022-11-30T09:02:31.947Z,100292.69
2022-11-30T09:05:00.510Z,100288.69
2022-11-30T09:07:29.223Z,100287.59
2022-11-30T09:09:57.904Z,100284.16
2022-11-30T09:12:26.475Z,100290.13
2022-11-30T09:14:58.228Z,100294.28
2022-11-30T09:17:27.369Z,100283.19
2022-11-30T09:19:56.878Z,100284.72
2022-11-30T09:22:25.533Z,100288.63
2022-11-30T09:24:53.298Z,100285.78
2022-11-30T09:27:22.120Z,100290.19
2022-11-30T09:29:51.684Z,100282.69
2022-11-30T09:32:20.238Z,100288.06
2022-11-30T09:34:50.170Z,100286.63
2022-11-30T09:37:19.452Z,100301.34
2022-11-30T09:39:48.085Z,100301.22
2022-11-30T09:42:43.996Z,100291.78
2022-11-30T09:45:24.555Z,100292.41
2022-11-30T09:48:33.301Z,100290.44
2022-11-30T09:51:25.436Z,100277.47
2022-11-30T09:54:08.002Z,100282.13
2022-11-30T09:56:39.437Z,100280.88
2022-11-30T09:59:29.695Z,100276.13
2022-11-30T10:02:07.505Z,100275.06
2022-11-30T10:04:36.895Z,100266.19
2022-11-30T10:07:11.279Z,100273.13
2022-11-30T10:13:45.159Z,100275.44
2022-11-30T10:16:44.187Z,100260.75
2022-11-30T10:20:22.802Z,100286.06
2022-11-30T10:24:06.345Z,100274.94
2022-11-30T10:26:38.516Z,100266.34
2022-11-30T10:29:38.816Z,100256.13
2022-11-30T10:32:37.011Z,100248.34
2022-11-30T10:35:37.988Z,100244.59
2022-11-30T10:38:35.676Z,100249.00
2022-11-30T10:41:25.480Z,100246.44
2022-11-30T10:44:03.603Z,100252.41
2022-11-30T10:46:42.663Z,100245.22
2022-11-30T10:49:20.138Z,100245.38
2022-11-30T10:51:58.554Z,100241.41
2022-11-30T10:54:26.420Z,100240.81
2022-11-30T10:56:54.122Z,100246.19
2022-11-30T10:59:45.719Z,100245.63
2022-11-30T11:02:51.721Z,100241.72
2022-11-30T11:05:28.133Z,100247.19
2022-11-30T11:08:07.241Z,100234.78
2022-11-30T11:10:52.792Z,100226.72
2022-11-30T11:13:43.801Z,100230.75
2022-11-30T11:16:14.057Z,100232.91
2022-11-30T11:18:57.596Z,100222.47
2022-11-30T11:21:25.838Z,100213.25
2022-11-30T11:23:58.856Z,100219.03
2022-11-30T11:26:29.639Z,100212.91
2022-11-30T11:28:59.715Z,100221.13
2022-11-30T11:31:41.105Z,100225.25
2022-11-30T11:34:36.889Z,100227.94
2022-11-30T11:37:33.851Z,100228.75
2022-11-30T11:40:20.908Z,100234.47
2022-11-30T11:42:54.926Z,100230.28
2022-11-30T11:45:31.189Z,100236.78
2022-11-30T11:48:00.041Z,100237.22
2022-11-30T11:51:05.567Z,100235.16
2022-11-30T11:53:53.926Z,100235.38
2022-11-30T11:56:35.648Z,100229.59
2022-11-30T11:59:13.395Z,100237.22
2022-11-30T12:02:31.361Z,100234.22
2022-11-30T12:05:17.181Z,100235.56
2022-11-30T12:08:08.947Z,100239.72
2022-11-30T12:10:57.323Z,100235.03
2022-11-30T12:13:38.984Z,100229.09
2022-11-30T12:16:17.211Z,100223.00
2022-11-30T12:19:10.561Z,100237.13
2022-11-30T12:22:39.618Z,100231.09
2022-11-30T12:25:32.607Z,100220.41
2022-11-30T12:28:28.136Z,100215.81
2022-11-30T12:32:13.596Z,100221.31
2022-11-30T12:35:17.813Z,100221.00
2022-11-30T12:38:56.270Z,100218.75
2022-11-30T12:41:40.724Z,100217.19
2022-11-30T12:44:43.550Z,100224.13
2022-11-30T12:48:19.833Z,100229.91
2022-11-30T12:51:28.039Z,100227.19
2022-11-30T12:54:42.010Z,100230.72
2022-11-30T12:57:21.736Z,100227.19
2022-11-30T13:03:12.966Z,100232.38
2022-11-30T13:05:58.018Z,100213.22
2022-11-30T13:09:03.741Z,100220.41
2022-11-30T13:11:41.985Z,100220.72
2022-11-30T13:14:23.641Z,100226.78
2022-11-30T13:17:16.280Z,100210.19
2022-11-30T13:20:08.707Z,100220.59
2022-11-30T13:23:05.718Z,100205.84
2022-11-30T13:26:34.548Z,100207.06
2022-11-30T13:29:45.089Z,100202.44
2022-11-30T13:32:34.282Z,100205.91
2022-11-30T13:35:29.631Z,100203.47
2022-11-30T13:38:34.532Z,100198.47
2022-11-30T13:41:03.208Z,100200.16
2022-11-30T13:43:57.221Z,100194.88
2022-11-30T13:46:25.786Z,100198.78
2022-11-30T13:49:29.714Z,100202.19
2022-11-30T13:52:21.389Z,100210.56
2022-11-30T13:54:54.695Z,100206.34
2022-11-30T13:57:30.365Z,100207.63
2022-11-30T14:00:05.181Z,100205.81
2022-11-30T14:05:32.409Z,100203.47
2022-11-30T14:08:00.134Z,100212.97
2022-11-30T14:10:41.749Z,100209.34
2022-11-30T14:13:10.596Z,100207.34
2022-11-30T14:15:42.363Z,100211.13
2022-11-30T14:18:10.192Z,100208.44
2022-11-30T14:21:12.694Z,100227.16
2022-11-30T14:24:14.984Z,100219.22
2022-11-30T14:26:49.385Z,100214.63
2022-11-30T14:29:31.844Z,100211.56
2022-11-30T14:32:13.660Z,100212.78
2022-11-30T14:35:19.643Z,100205.72
2022-11-30T14:37:59.224Z,100197.97
2022-11-30T14:40:31.130Z,100194.44
2022-11-30T14:43:02.647Z,100191.06
2022-11-30T14:45:34.497Z,100192.97
2022-11-30T14:48:18.531Z,100184.94
2022-11-30T14:51:00.173Z,100184.22
2022-11-30T14:53:54.614Z,100187.00
2022-11-30T14:56:36.419Z,100190.47
2022-11-30T14:59:45.681Z,100200.66
2022-11-30T15:02:39.070Z,100198.97
2022-11-30T15:05:22.856Z,100197.56
2022-11-30T15:07:52.076Z,100197.44
2022-11-30T15:10:31.609Z,100202.38
2022-11-30T15:13:02.697Z,100205.56
2022-11-30T15:15:31.683Z,100192.66
2022-11-30T15:18:23.977Z,100196.53
2022-11-30T15:20:57.106Z,100195.59
2022-11-30T15:23:25.109Z,100192.22
2022-11-30T15:26:06.593Z,100196.59
2022-11-30T15:28:45.177Z,100196.31
2022-11-30T15:31:17.631Z,100192.09
2022-11-30T15:33:49.266Z,100191.22
2022-11-30T15:36:34.011Z,100182.78
2022-11-30T15:39:22.647Z,100196.59
2022-11-30T15:42:04.946Z,100199.25
2022-11-30T15:44:45.614Z,100194.63
2022-11-30T15:47:37.233Z,100191.47
2022-11-30T15:50:29.976Z,100192.00
2022-11-30T15:53:31.972Z,100188.59
2022-11-30T15:56:09.577Z,100184.06
2022-11-30T15:59:26.506Z,100190.63
2022-11-30T16:02:21.739Z,100197.03
2022-11-30T16:05:15.705Z,100195.13
2022-11-30T16:08:03.787Z,100202.75
2022-11-30T16:10:40.510Z,100197.81
2022-11-30T16:13:16.409Z,100191.03
2022-11-30T16:15:49.300Z,100191.22
2022-11-30T16:18:26.322Z,100195.69
2022-11-30T16:21:01.200Z,100197.41
2022-11-30T16:23:31.279Z,100193.75
2022-11-30T16:26:00.339Z,100190.97
2022-11-30T16:28:29.912Z,100192.38
2022-11-30T16:31:01.582Z,100188.22
2022-11-30T16:33:30.564Z,100186.59
2022-11-30T16:36:10.159Z,100189.44
2022-11-30T16:38:38.916Z,100184.34
2022-11-30T16:41:28.876Z,100187.97
2022-11-30T16:43:58.356Z,100183.88
2022-11-30T16:46:30.248Z,100193.97
2022-11-30T16:48:59.749Z,100189.69
2022-11-30T16:51:36.559Z,100181.38
2022-11-30T16:54:06.126Z,100186.59
2022-11-30T16:56:35.957Z,100190.78
2022-11-30T16:59:05.493Z,100195.84
2022-11-30T17:01:47.470Z,100186.03
2022-11-30T17:04:32.960Z,100192.81
2022-11-30T17:07:03.014Z,100193.00
2022-11-30T17:09:34.708Z,100188.25
2022-11-30T17:12:04.542Z,100196.06
2022-11-30T17:14:34.054Z,100193.31
2022-11-30T17:17:03.760Z,100195.38
2022-11-30T17:19:34.350Z,100204.28
2022-11-30T17:22:04.329Z,100205.13
2022-11-30T17:24:34.735Z,100202.28
2022-11-30T17:27:05.812Z,100199.00
2022-11-30T17:29:37.709Z,100207.06
2022-11-30T17:32:08.126Z,100208.22
2022-11-30T17:34:37.777Z,100201.91
2022-11-30T17:37:07.437Z,100201.59
2022-11-30T17:39:37.609Z,100200.03
2022-11-30T17:42:07.157Z,100201.72
2022-11-30T17:44:37.154Z,100207.88
2022-11-30T17:47:06.745Z,100201.69
2022-11-30T17:49:36.346Z,100201.19
2022-11-30T17:52:06.086Z,100205.53
2022-11-30T17:54:35.816Z,100213.31
2022-11-30T17:57:05.408Z,100210.31
2022-11-30T17:59:35.048Z,100219.44
2022-11-30T18:02:05.141Z,100215.34
2022-11-30T18:04:34.825Z,100208.22
2022-11-30T18:07:05.530Z,100218.09
2022-11-30T18:09:40.827Z,100216.13
2022-11-30T18:12:13.321Z,100218.91
2022-11-30T18:14:43.746Z,100217.44
2022-11-30T18:17:13.346Z,100216.38
2022-11-30T18:19:41.196Z,100212.38
2022-11-30T18:22:11.768Z,100223.88
2022-11-30T18:24:39.656Z,100216.50
2022-11-30T18:27:10.083Z,100220.25
2022-11-30T18:29:39.661Z,100211.63
2022-11-30T18:32:10.498Z,100215.22
2022-11-30T18:34:40.358Z,100216.50
2022-11-30T18:37:09.901Z,100214.56
2022-11-30T18:39:37.674Z,100215.41
2022-11-30T18:42:09.143Z,100219.00
2022-11-30T18:44:37.783Z,100226.41
2022-11-30T18:47:07.268Z,100225.75
2022-11-30T18:49:36.743Z,100232.66
2022-11-30T18:52:06.153Z,100221.19
2022-11-30T18:54:36.397Z,100235.09
2022-11-30T18:57:06.028Z,100230.75
2022-11-30T18:59:34.727Z,100227.34
2022-11-30T19:02:02.596Z,100225.78
2022-11-30T19:04:32.421Z,100229.91
2022-11-30T19:07:01.886Z,100229.09
2022-11-30T19:09:31.886Z,100238.66
2022-11-30T19:12:00.517Z,100233.63
2022-11-30T19:14:29.339Z,100228.34
2022-11-30T19:17:00.708Z,100237.00
2022-11-30T19:19:30.397Z,100239.66
2022-11-30T19:21:59.964Z,100229.97
2022-11-30T19:24:29.517Z,100221.81
2022-11-30T19:26:58.999Z,100230.00
2022-11-30T19:29:27.668Z,100232.75
2022-11-30T19:31:55.462Z,100239.41
2022-11-30T19:34:23.263Z,100239.81
2022-11-30T19:36:52.035Z,100248.63
2022-11-30T19:39:20.727Z,100241.31
2022-11-30T19:41:49.465Z,100238.19
2022-11-30T19:44:18.969Z,100246.25
2022-11-30T19:46:48.451Z,100255.09
2022-11-30T19:49:18.059Z,100248.66
2022-11-30T19:51:46.681Z,100248.53
2022-11-30T19:54:15.879Z,100244.72
2022-11-30T19:56:44.672Z,100237.56
2022-11-30T19:59:13.320Z,100243.09
2022-11-30T20:01:42.853Z,100243.63
2022-11-30T20:04:11.617Z,100247.88
2022-11-30T20:06:41.198Z,100249.47
2022-11-30T20:09:11.976Z,100252.25
2022-11-30T20:11:40.750Z,100253.78
2022-11-30T20:14:17.167Z,100255.69
2022-11-30T20:16:46.755Z,100244.78
2022-11-30T20:19:17.419Z,100245.38
2022-11-30T20:21:48.564Z,100244.72
2022-11-30T20:24:18.226Z,100241.22
2022-11-30T20:26:47.790Z,100229.53
2022-11-30T20:29:19.025Z,100240.50
2022-11-30T20:31:50.213Z,100244.66
2022-11-30T20:34:19.029Z,100248.66
2022-11-30T20:36:48.643Z,100235.06
2022-11-30T20:39:18.283Z,100224.09
2022-11-30T20:41:47.757Z,100228.66
2022-11-30T20:44:16.499Z,100235.47
2022-11-30T20:46:46.044Z,100232.31
2022-11-30T20:49:21.360Z,100236.97
2022-11-30T20:51:50.242Z,100240.69
2022-11-30T20:54:21.148Z,100236.69
2022-11-30T20:56:51.345Z,100231.38
2022-11-30T20:59:23.887Z,100230.22
2022-11-30T21:01:56.367Z,100232.63
2022-11-30T21:04:26.828Z,100221.28
2022-11-30T21:06:56.428Z,100231.03
2022-11-30T21:09:25.949Z,100233.91
2022-11-30T21:11:55.321Z,100242.66
2022-11-30T21:14:24.291Z,100241.91
2022-11-30T21:16:53.477Z,100246.16
2022-11-30T21:19:23.007Z,100247.09
2022-11-30T21:21:51.810Z,100246.75
2022-11-30T21:24:21.244Z,100252.63
2022-11-30T21:26:50.797Z,100252.69
2022-11-30T21:29:20.314Z,100266.09
2022-11-30T21:31:49.067Z,100266.31
2022-11-30T21:34:18.529Z,100271.03
2022-11-30T21:36:49.074Z,100271.78
2022-11-30T21:39:18.186Z,100273.59
2022-11-30T21:41:47.807Z,100285.34
2022-11-30T21:44:17.684Z,100289.34
2022-11-30T21:46:47.669Z,100294.84
2022-11-30T21:49:17.325Z,100290.84
2022-11-30T21:51:47.900Z,100295.28
2022-11-30T21:54:16.609Z,100289.44
2022-11-30T21:56:46.123Z,100294.88
2022-11-30T21:59:15.466Z,100288.13
2022-11-30T22:01:45.870Z,100278.25
2022-11-30T22:04:16.180Z,100285.72
2022-11-30T22:06:45.803Z,100281.13
2022-11-30T22:09:17.477Z,100283.59
2022-11-30T22:11:47.141Z,100288.13
2022-11-30T22:14:17.680Z,100298.13
2022-11-30T22:16:46.520Z,100296.50
2022-11-30T22:19:18.400Z,100292.44
2022-11-30T22:21:49.975Z,100285.88
2022-11-30T22:24:21.071Z,100298.31
2022-11-30T22:26:49.429Z,100297.28
2022-11-30T22:29:24.705Z,100283.06
2022-11-30T22:31:55.373Z,100290.50
2022-11-30T22:34:25.051Z,100282.19
2022-11-30T22:36:53.794Z,100279.53
2022-11-30T22:39:22.754Z,100274.75
2022-11-30T22:41:55.734Z,100268.09
2022-11-30T22:44:26.577Z,100269.72
2022-11-30T22:46:56.348Z,100269.09
2022-11-30T22:49:26.031Z,100253.88
2022-11-30T22:51:55.563Z,100259.06
2022-11-30T22:54:24.290Z,100250.31
2022-11-30T22:56:53.749Z,100247.13
2022-11-30T22:59:22.419Z,100237.13
2022-11-30T23:01:51.614Z,100241.31
2022-11-30T23:04:25.063Z,100252.81
2022-11-30T23:06:54.849Z,100255.06
2022-11-30T23:09:24.929Z,100264.84
2022-11-30T23:11:54.403Z,100262.31
2022-11-30T23:14:23.223Z,100259.59
2022-11-30T23:16:51.849Z,100267.47
2022-11-30T23:19:21.301Z,100268.25
2022-11-30T23:21:50.795Z,100269.81
2022-11-30T23:24:21.635Z,100269.28
2022-11-30T23:26:50.985Z,100263.81
2022-11-30T23:29:19.754Z,100259.19
2022-11-30T23:31:49.366Z,100258.59
2022-11-30T23:34:22.414Z,100262.44
2022-11-30T23:36:52.242Z,100266.69
2022-11-30T23:39:21.309Z,100265.97
2022-11-30T23:41:51.072Z,100273.19
2022-11-30T23:44:20.525Z,100275.50
2022-11-30T23:46:50.010Z,100268.72
2022-11-30T23:49:19.563Z,100274.84
2022-11-30T23:51:48.351Z,100267.97
2022-11-30T23:54:17.929Z,100273.19
2022-11-30T23:56:47.418Z,100276.88
2022-11-30T23:59:16.990Z,100279.94
